Time;durP1;ratioP1;P1;durP2;ratioP2;P2;SDS_P1;SDS_P2;PMS_P1;PMS_P2;Temp;Humidity;BMP_temperature;BMP_pressure;BME280_temperature;BME280_humidity;BME280_pressure;Samples;Min_cycle;Max_cycle;Signal;HPM_P1;HPM_P2
2023/09/19 00:01:15;;;;;;;1.25;1.10;;;21.10;57.80;;;;;;20372;6883;281793;-75
2023/09/19 00:03:42;;;;;;;0.90;0.90;;;21.20;58.00;;;;;;20582;6883;117848;-75
2023/09/19 00:06:10;;;;;;;1.80;1.20;;;20.80;58.20;;;;;;20356;6882;294161;-75
2023/09/19 00:08:35;;;;;;;2.00;1.30;;;20.80;58.70;;;;;;20365;6882;282230;-74
2023/09/19 00:11:05;;;;;;;2.33;1.17;;;20.90;58.20;;;;;;20373;6883;279302;-75
2023/09/19 00:13:28;;;;;;;1.00;1.00;;;21.00;58.00;;;;;;20569;6883;118041;-75
2023/09/19 00:15:55;;;;;;;2.30;1.20;;;20.70;58.10;;;;;;20360;6883;280144;-74
2023/09/19 00:18:21;;;;;;;1.30;1.12;;;20.70;58.80;;;;;;20338;6883;280221;-75
2023/09/19 00:20:49;;;;;;;2.30;1.30;;;21.00;58.40;;;;;;20348;6883;339339;-75
2023/09/19 00:23:13;;;;;;;1.30;1.20;;;20.90;58.30;;;;;;20291;6883;299060;-76
2023/09/19 00:25:40;;;;;;;1.77;1.20;;;21.10;58.20;;;;;;20322;6883;280485;-76
2023/09/19 00:28:06;;;;;;;1.27;1.17;;;21.10;57.90;;;;;;20347;6883;294932;-77
2023/09/19 00:30:30;;;;;;;1.60;1.27;;;21.20;57.80;;;;;;20549;6883;117898;-76
2023/09/19 00:32:56;;;;;;;1.67;1.23;;;20.90;58.10;;;;;;20574;6883;118571;-76
2023/09/19 00:35:24;;;;;;;1.40;1.20;;;20.50;58.70;;;;;;20345;6883;310679;-76
2023/09/19 00:37:50;;;;;;;2.33;0.90;;;20.50;58.70;;;;;;20577;6883;117967;-76
2023/09/19 00:40:17;;;;;;;3.67;1.25;;;20.40;58.90;;;;;;20339;6883;343530;-76
2023/09/19 00:42:42;;;;;;;1.80;1.20;;;20.40;58.90;;;;;;20365;6883;281270;-76
2023/09/19 00:45:10;;;;;;;1.53;1.00;;;20.60;58.20;;;;;;20363;6883;282276;-76
2023/09/19 00:47:33;;;;;;;1.10;1.00;;;20.80;57.40;;;;;;20340;6883;292482;-76
2023/09/19 00:49:59;;;;;;;1.30;0.80;;;20.90;56.80;;;;;;20552;6883;118682;-75
2023/09/19 00:52:24;;;;;;;0.82;0.82;;;20.60;57.20;;;;;;20530;6883;145738;-76
2023/09/19 00:54:50;;;;;;;1.30;0.70;;;20.20;58.00;;;;;;20552;6883;120076;-76
2023/09/19 00:57:19;;;;;;;0.85;0.85;;;19.90;58.60;;;;;;20372;6883;283580;-76
2023/09/19 00:59:44;;;;;;;1.10;0.90;;;20.00;58.70;;;;;;20342;6883;304601;-76
2023/09/19 01:02:10;;;;;;;2.97;0.95;;;20.30;58.30;;;;;;20571;6883;117981;-77
2023/09/19 01:04:35;;;;;;;1.07;0.90;;;20.20;58.20;;;;;;20385;6883;118086;-76
2023/09/19 01:07:00;;;;;;;1.55;1.20;;;19.90;58.70;;;;;;20349;6883;285972;-76
2023/09/19 01:09:27;;;;;;;0.93;0.93;;;20.00;59.00;;;;;;20572;6883;117506;-76
2023/09/19 01:11:54;;;;;;;1.37;0.80;;;19.90;59.00;;;;;;20557;6883;117972;-76
2023/09/19 01:14:33;;;;;;;2.27;0.87;;;19.70;59.40;;;;;;20548;6883;118254;-80
2023/09/19 01:17:00;;;;;;;1.73;1.00;;;19.60;59.80;;;;;;20339;6883;309996;-77
2023/09/19 01:19:33;;;;;;;0.82;0.75;;;19.80;59.70;;;;;;20336;6882;310131;-77
2023/09/19 01:22:21;;;;;;;1.35;0.88;;;20.10;59.10;;;;;;20355;6883;314943;-77
2023/09/19 01:25:00;;;;;;;3.50;0.93;;;20.40;58.40;;;;;;20565;6883;118336;-77
2023/09/19 01:27:53;;;;;;;1.70;0.93;;;19.90;59.00;;;;;;20567;6883;117615;-77
2023/09/19 01:30:18;;;;;;;2.07;0.63;;;19.80;58.90;;;;;;20477;6883;122635;-77
2023/09/19 01:32:46;;;;;;;2.35;0.95;;;19.60;59.50;;;;;;20335;6883;314944;-77
2023/09/19 01:35:12;;;;;;;0.63;0.63;;;19.70;59.90;;;;;;20554;6883;119306;-77
2023/09/19 01:37:35;;;;;;;2.03;1.15;;;19.70;59.70;;;;;;20332;6883;344830;-77
2023/09/19 01:40:17;;;;;;;0.80;0.80;;;19.90;60.00;;;;;;20552;6883;118039;-77
2023/09/19 01:42:49;;;;;;;2.90;0.90;;;19.80;60.40;;;;;;20564;6883;118228;-77
2023/09/19 01:45:54;;;;;;;0.70;0.70;;;19.60;60.10;;;;;;20563;6883;123125;-77
2023/09/19 01:48:19;;;;;;;1.00;1.00;;;19.40;60.40;;;;;;20543;6883;121920;-77
2023/09/19 01:50:52;;;;;;;2.67;1.05;;;19.30;60.80;;;;;;20554;6883;121186;-77
2023/09/19 01:53:24;;;;;;;1.20;1.10;;;19.10;61.10;;;;;;20316;6883;309353;-77
2023/09/19 01:55:52;;;;;;;1.47;1.10;;;19.80;61.00;;;;;;20325;6883;280021;-77
2023/09/19 01:58:30;;;;;;;2.25;1.10;;;19.80;60.50;;;;;;20330;6883;308946;-77
2023/09/19 02:00:57;;;;;;;1.83;1.10;;;20.20;60.00;;;;;;20561;6883;117644;-77
2023/09/19 02:03:23;;;;;;;0.87;0.87;;;20.00;59.90;;;;;;20566;6883;124469;-77
2023/09/19 02:05:49;;;;;;;1.10;1.10;;;19.80;60.30;;;;;;20566;6883;118076;-77
2023/09/19 02:08:14;;;;;;;1.20;1.10;;;19.60;60.60;;;;;;20339;6883;309884;-77
2023/09/19 02:10:41;;;;;;;1.20;1.20;;;19.70;60.60;;;;;;20564;6883;117743;-77
2023/09/19 02:13:05;;;;;;;1.40;1.30;;;19.70;60.40;;;;;;20356;6883;282863;-77
2023/09/19 02:15:35;;;;;;;2.00;1.20;;;19.80;60.10;;;;;;20576;6883;118065;-77
2023/09/19 02:17:56;;;;;;;1.13;1.10;;;19.80;60.10;;;;;;20351;6883;280378;-77
2023/09/19 02:20:22;;;;;;;1.45;1.35;;;19.90;60.00;;;;;;20345;6883;311626;-77
2023/09/19 02:22:49;;;;;;;1.40;1.20;;;20.20;59.20;;;;;;20362;6883;310186;-77
2023/09/19 02:25:13;;;;;;;1.00;1.00;;;20.40;58.70;;;;;;20574;6883;120811;-77
2023/09/19 02:27:39;;;;;;;1.23;1.20;;;20.20;58.70;;;;;;20359;6883;285206;-77
2023/09/19 02:30:06;;;;;;;3.20;1.20;;;20.20;58.60;;;;;;20367;6882;314543;-77
2023/09/19 02:32:35;;;;;;;1.62;1.15;;;20.30;58.20;;;;;;20340;6883;311523;-77
2023/09/19 02:34:58;;;;;;;1.35;1.20;;;20.40;58.00;;;;;;20350;6883;309833;-77
2023/09/19 02:37:22;;;;;;;1.70;1.35;;;20.50;58.10;;;;;;20584;6883;118211;-76
2023/09/19 02:39:49;;;;;;;0.90;0.90;;;19.80;59.00;;;;;;20594;6883;120655;-76
2023/09/19 02:42:14;;;;;;;1.23;1.10;;;19.90;59.10;;;;;;20489;6883;118705;-77
2023/09/19 02:44:40;;;;;;;1.27;1.20;;;19.60;59.70;;;;;;20351;6883;293777;-77
2023/09/19 02:47:06;;;;;;;1.27;1.17;;;19.60;59.70;;;;;;20349;6883;283646;-77
2023/09/19 02:49:32;;;;;;;1.07;0.97;;;19.80;59.00;;;;;;20599;6883;117449;-77
2023/09/19 02:51:59;;;;;;;1.37;0.93;;;19.80;58.90;;;;;;20580;6883;117622;-77
2023/09/19 02:54:24;;;;;;;2.78;1.30;;;19.50;59.40;;;;;;20353;6883;285078;-77
2023/09/19 02:56:50;;;;;;;2.73;1.37;;;19.60;59.80;;;;;;20597;6883;117789;-76
2023/09/19 02:59:16;;;;;;;0.90;0.90;;;19.50;59.70;;;;;;20489;6883;126378;-77
2023/09/19 03:01:41;;;;;;;1.10;0.90;;;19.30;60.00;;;;;;20475;6883;120823;-77
2023/09/19 03:04:08;;;;;;;2.40;1.17;;;19.00;60.30;;;;;;20438;6883;118673;-77
2023/09/19 03:06:34;;;;;;;1.10;1.10;;;18.80;60.70;;;;;;20455;6883;118570;-77
2023/09/19 03:09:00;;;;;;;1.70;1.13;;;18.70;61.10;;;;;;20470;6883;118549;-76
2023/09/19 03:11:26;;;;;;;1.48;1.37;;;18.70;61.50;;;;;;20235;6883;319500;-76
2023/09/19 03:13:51;;;;;;;1.60;1.50;;;19.00;62.10;;;;;;20507;6883;117895;-76
2023/09/19 03:16:21;;;;;;;3.97;1.70;;;19.10;61.90;;;;;;20316;6883;310304;-76
2023/09/19 03:18:44;;;;;;;2.97;1.87;;;19.40;61.30;;;;;;20545;6883;122972;-75
2023/09/19 03:21:09;;;;;;;2.25;1.55;;;19.40;61.00;;;;;;20346;6883;339114;-72
2023/09/19 03:23:36;;;;;;;2.67;1.43;;;19.60;60.90;;;;;;20574;6883;121173;-73
2023/09/19 03:26:01;;;;;;;1.62;1.52;;;19.60;60.70;;;;;;20365;6883;283490;-72
2023/09/19 03:28:27;;;;;;;3.40;1.67;;;19.70;60.50;;;;;;20350;6883;309761;-70
2023/09/19 03:31:02;;;;;;;1.42;1.42;;;19.90;60.00;;;;;;20576;6883;118274;-71
2023/09/19 03:33:31;;;;;;;1.53;1.33;;;20.00;60.00;;;;;;20365;6883;312724;-72
2023/09/19 03:35:54;;;;;;;1.50;1.30;;;19.90;60.00;;;;;;20358;6883;307962;-73
2023/09/19 03:38:20;;;;;;;3.03;1.33;;;20.20;59.40;;;;;;20357;6883;280329;-72
2023/09/19 03:40:46;;;;;;;1.60;1.50;;;20.50;58.10;;;;;;20377;6882;310633;-72
2023/09/19 03:43:14;;;;;;;1.98;1.40;;;20.60;57.80;;;;;;20370;6882;282137;-72
2023/09/19 03:45:40;;;;;;;1.40;1.30;;;20.60;57.80;;;;;;20571;6883;118601;-71
2023/09/19 03:48:08;;;;;;;1.30;1.20;;;20.40;58.10;;;;;;20581;6883;117642;-72
2023/09/19 03:50:34;;;;;;;1.30;1.20;;;19.70;59.70;;;;;;20518;6883;119803;-72
2023/09/19 03:52:59;;;;;;;1.60;1.37;;;19.70;59.70;;;;;;20564;6883;123685;-72
2023/09/19 03:55:26;;;;;;;1.67;1.57;;;19.60;60.60;;;;;;20374;6883;308096;-72
2023/09/19 03:57:52;;;;;;;2.70;1.40;;;19.60;60.60;;;;;;20373;6883;285069;-72
2023/09/19 04:00:20;;;;;;;1.90;1.40;;;19.90;60.10;;;;;;20347;6883;310225;-72
2023/09/19 04:02:42;;;;;;;2.23;1.43;;;20.20;59.60;;;;;;20559;6883;117846;-72
2023/09/19 04:05:10;;;;;;;2.40;1.50;;;20.00;59.50;;;;;;20359;6883;315117;-70
2023/09/19 04:07:35;;;;;;;2.95;1.85;;;20.00;60.00;;;;;;20354;6883;345329;-72
2023/09/19 04:10:01;;;;;;;1.95;1.83;;;20.20;59.70;;;;;;20357;6883;339124;-72
2023/09/19 04:12:26;;;;;;;1.70;1.60;;;20.40;59.60;;;;;;20556;6883;118391;-71
2023/09/19 04:14:52;;;;;;;1.60;1.45;;;20.20;59.60;;;;;;20352;6883;310196;-72
2023/09/19 04:17:18;;;;;;;3.47;1.87;;;20.10;60.00;;;;;;20572;6883;118921;-72
2023/09/19 04:19:45;;;;;;;2.15;1.80;;;20.00;60.20;;;;;;20350;6883;313495;-71
2023/09/19 04:22:09;;;;;;;2.37;1.40;;;20.00;60.50;;;;;;20564;6883;118776;-73
2023/09/19 04:24:34;;;;;;;2.37;1.67;;;19.80;60.40;;;;;;20341;6883;286376;-73
2023/09/19 04:27:00;;;;;;;2.67;1.55;;;19.60;60.50;;;;;;20579;6883;118032;-73
2023/09/19 04:29:29;;;;;;;2.42;1.62;;;19.60;60.40;;;;;;20357;6883;339140;-72
2023/09/19 04:31:54;;;;;;;2.10;1.50;;;19.60;60.70;;;;;;20340;6883;339133;-76
2023/09/19 04:34:19;;;;;;;1.45;1.20;;;19.80;60.30;;;;;;20556;6883;122385;-70
2023/09/19 04:36:45;;;;;;;1.58;1.40;;;19.60;60.30;;;;;;20365;6883;309336;-73
2023/09/19 04:39:12;;;;;;;1.37;1.27;;;19.60;60.60;;;;;;20567;6883;119430;-71
2023/09/19 04:41:38;;;;;;;1.35;1.30;;;19.50;60.70;;;;;;20343;6883;317235;-70
2023/09/19 04:44:03;;;;;;;2.47;1.43;;;19.50;60.60;;;;;;20565;6883;117689;-71
2023/09/19 04:46:27;;;;;;;1.70;1.60;;;19.30;60.60;;;;;;20348;6883;281646;-72
2023/09/19 04:48:53;;;;;;;1.48;1.37;;;19.40;60.70;;;;;;20365;6883;314211;-71
2023/09/19 04:51:20;;;;;;;3.83;1.30;;;19.60;60.40;;;;;;20578;6883;118130;-72
2023/09/19 04:53:45;;;;;;;1.85;1.75;;;19.40;60.70;;;;;;20321;6881;280304;-70
2023/09/19 04:56:10;;;;;;;1.93;1.60;;;19.40;60.70;;;;;;20344;6883;279504;-72
2023/09/19 04:58:36;;;;;;;1.80;1.70;;;19.70;60.50;;;;;;20386;6883;283881;-71
2023/09/19 05:01:02;;;;;;;2.85;1.65;;;19.90;60.20;;;;;;20363;6883;338571;-71
2023/09/19 05:03:27;;;;;;;1.92;1.60;;;20.00;59.90;;;;;;20355;6883;313994;-72
2023/09/19 05:05:54;;;;;;;2.08;1.83;;;20.00;59.90;;;;;;20565;6883;117698;-70
2023/09/19 05:08:19;;;;;;;3.13;1.40;;;20.00;59.90;;;;;;20511;6883;117780;-70
2023/09/19 05:10:45;;;;;;;2.80;1.73;;;19.60;60.40;;;;;;20284;6883;325580;-70
2023/09/19 05:13:11;;;;;;;2.33;1.80;;;19.60;60.90;;;;;;20352;6883;285558;-70
2023/09/19 05:15:36;;;;;;;4.03;2.00;;;19.90;60.80;;;;;;20319;6883;309477;-72
2023/09/19 05:18:03;;;;;;;1.53;1.40;;;20.00;60.80;;;;;;20576;6883;118015;-71
2023/09/19 05:20:32;;;;;;;3.30;1.90;;;19.90;60.20;;;;;;20337;6883;310746;-71
2023/09/19 05:23:03;;;;;;;2.13;1.80;;;20.00;60.20;;;;;;20320;6883;310114;-73
2023/09/19 05:25:29;;;;;;;2.40;1.70;;;20.20;59.90;;;;;;20521;6883;118140;-73
2023/09/19 05:27:54;;;;;;;1.47;1.37;;;19.70;61.20;;;;;;20533;6883;119718;-70
2023/09/19 05:30:20;;;;;;;3.40;1.55;;;19.70;60.50;;;;;;20329;6883;322716;-69
2023/09/19 05:32:46;;;;;;;1.50;1.40;;;19.70;60.50;;;;;;20569;6883;117783;-69
2023/09/19 05:35:12;;;;;;;2.57;1.60;;;19.70;60.50;;;;;;20334;6883;285016;-73
2023/09/19 05:37:38;;;;;;;2.42;1.80;;;19.80;60.40;;;;;;20330;6883;339052;-70
2023/09/19 05:40:09;;;;;;;1.80;1.50;;;20.10;59.90;;;;;;20261;6883;293399;-69
2023/09/19 05:42:33;;;;;;;3.67;1.67;;;20.30;59.30;;;;;;20273;6883;285906;-68
2023/09/19 05:44:59;;;;;;;2.25;1.27;;;20.50;59.00;;;;;;20269;6883;289581;-69
2023/09/19 05:47:25;;;;;;;1.30;1.20;;;20.60;58.40;;;;;;20531;6883;120733;-68
2023/09/19 05:49:50;;;;;;;1.35;1.30;;;20.40;58.80;;;;;;20331;6883;309895;-68
2023/09/19 05:52:17;;;;;;;3.97;1.52;;;20.30;58.90;;;;;;20324;6883;279915;-69
2023/09/19 05:54:42;;;;;;;1.40;1.30;;;20.50;58.70;;;;;;20299;6883;281199;-69
2023/09/19 05:57:07;;;;;;;1.80;1.10;;;20.70;58.50;;;;;;20441;6883;121948;-68
2023/09/19 05:59:33;;;;;;;2.78;1.60;;;20.50;58.70;;;;;;20236;6883;309814;-69
2023/09/19 06:01:59;;;;;;;1.05;1.05;;;20.40;58.60;;;;;;20486;6883;117666;-68
2023/09/19 06:04:23;;;;;;;2.00;1.20;;;20.30;58.90;;;;;;20451;6881;120484;-68
2023/09/19 06:06:50;;;;;;;1.65;1.33;;;19.70;59.90;;;;;;20487;6883;117674;-69
2023/09/19 06:09:15;;;;;;;3.10;1.30;;;19.60;59.80;;;;;;20276;6883;310231;-69
2023/09/19 06:11:41;;;;;;;1.60;1.50;;;19.80;60.10;;;;;;20289;6883;342752;-70
2023/09/19 06:14:07;;;;;;;2.92;1.42;;;20.40;58.70;;;;;;20312;6883;280620;-68
2023/09/19 06:16:33;;;;;;;2.03;1.93;;;20.40;58.70;;;;;;20518;6883;117678;-68
2023/09/19 06:19:02;;;;;;;2.97;1.80;;;20.30;58.80;;;;;;20356;6883;280157;-68
2023/09/19 06:21:28;;;;;;;1.58;1.45;;;20.30;58.80;;;;;;20352;6883;339085;-70
2023/09/19 06:23:54;;;;;;;1.60;1.50;;;20.30;58.70;;;;;;20567;6883;118008;-70
2023/09/19 06:26:19;;;;;;;1.50;1.27;;;20.20;58.60;;;;;;20551;6883;127407;-71
2023/09/19 06:28:45;;;;;;;1.23;1.23;;;20.00;59.40;;;;;;20575;6883;117958;-68
2023/09/19 06:31:11;;;;;;;1.90;1.40;;;19.70;60.00;;;;;;20363;6883;281933;-68
2023/09/19 06:33:40;;;;;;;1.70;1.60;;;19.80;60.50;;;;;;20353;6883;310625;-69
2023/09/19 06:36:05;;;;;;;1.73;1.30;;;20.20;60.50;;;;;;20345;6883;308248;-69
2023/09/19 06:38:34;;;;;;;2.50;1.30;;;20.40;60.00;;;;;;20551;6883;117766;-69
2023/09/19 06:40:57;;;;;;;1.40;1.30;;;20.30;59.80;;;;;;20343;6883;322030;-73
2023/09/19 06:43:23;;;;;;;1.73;1.10;;;20.50;59.90;;;;;;20565;6883;121863;-70
2023/09/19 06:45:48;;;;;;;1.45;1.35;;;20.30;59.90;;;;;;20343;6883;304318;-70
2023/09/19 06:48:14;;;;;;;2.00;1.20;;;20.50;60.20;;;;;;20531;6883;150302;-69
2023/09/19 06:50:41;;;;;;;1.80;1.20;;;20.40;60.10;;;;;;20354;6883;284434;-70
2023/09/19 06:53:06;;;;;;;1.17;1.17;;;20.50;60.70;;;;;;20563;6883;117567;-70
2023/09/19 06:55:32;;;;;;;2.10;1.40;;;20.40;60.00;;;;;;20371;6883;287559;-70
2023/09/19 06:57:59;;;;;;;1.73;1.30;;;20.80;60.20;;;;;;20355;6883;308967;-70
2023/09/19 07:00:25;;;;;;;1.50;1.33;;;21.00;59.00;;;;;;20331;6883;314040;-70
2023/09/19 07:02:58;;;;;;;1.50;1.40;;;20.90;58.90;;;;;;20380;6883;313916;-78
2023/09/19 07:05:22;;;;;;;1.50;1.30;;;21.10;59.20;;;;;;20338;6883;284510;-72
2023/09/19 07:07:50;;;;;;;1.57;1.47;;;21.50;58.60;;;;;;20338;6883;312699;-75
2023/09/19 07:10:16;;;;;;;2.53;1.33;;;21.50;58.60;;;;;;20309;6883;311834;-76
2023/09/19 07:12:42;;;;;;;2.50;1.40;;;21.60;58.40;;;;;;20347;6883;283354;-75
2023/09/19 07:15:07;;;;;;;1.20;1.20;;;21.70;57.90;;;;;;20572;6883;117795;-75
2023/09/19 07:17:33;;;;;;;1.40;1.30;;;21.50;58.30;;;;;;20567;6882;120652;-75
2023/09/19 07:19:58;;;;;;;2.58;1.48;;;21.20;59.00;;;;;;20378;6883;294659;-75
2023/09/19 07:22:28;;;;;;;1.40;1.30;;;21.70;59.30;;;;;;20360;6883;309297;-75
2023/09/19 07:24:59;;;;;;;1.20;1.20;;;21.60;59.20;;;;;;20581;6883;117882;-76
2023/09/19 07:27:22;;;;;;;2.03;1.10;;;21.60;59.90;;;;;;20574;6883;118128;-75
2023/09/19 07:29:48;;;;;;;1.83;1.20;;;21.50;59.60;;;;;;20590;6883;118400;-75
2023/09/19 07:32:14;;;;;;;1.60;1.50;;;21.40;60.00;;;;;;20359;6883;308460;-76
2023/09/19 07:34:40;;;;;;;1.80;1.10;;;21.70;59.90;;;;;;20594;6883;118694;-75
2023/09/19 07:37:05;;;;;;;1.98;1.20;;;21.80;59.40;;;;;;20378;6883;309350;-76
2023/09/19 07:39:30;;;;;;;1.90;1.17;;;22.10;58.50;;;;;;20595;6883;117864;-76
2023/09/19 07:41:56;;;;;;;1.42;1.33;;;22.20;58.50;;;;;;20589;6883;118632;-76
2023/09/19 07:44:21;;;;;;;1.52;1.20;;;22.10;59.00;;;;;;20338;6883;311011;-76
2023/09/19 07:46:50;;;;;;;2.40;1.40;;;22.40;58.60;;;;;;20374;6883;340509;-75
2023/09/19 07:49:13;;;;;;;3.25;1.37;;;22.80;57.30;;;;;;20367;6883;311170;-74
2023/09/19 07:51:38;;;;;;;2.63;1.63;;;23.30;56.60;;;;;;20572;6883;121439;-76
2023/09/19 07:54:04;;;;;;;1.37;1.27;;;23.30;56.40;;;;;;20381;6883;280153;-77
2023/09/19 07:56:30;;;;;;;1.13;1.10;;;23.40;56.20;;;;;;20573;6883;117666;-75
2023/09/19 07:58:57;;;;;;;4.12;1.30;;;23.40;56.00;;;;;;20590;6883;119970;-75
2023/09/19 08:01:23;;;;;;;4.55;1.20;;;23.20;56.20;;;;;;20368;6883;309351;-74
2023/09/19 08:03:47;;;;;;;1.33;1.20;;;23.30;55.60;;;;;;20582;6883;117529;-74
2023/09/19 08:06:14;;;;;;;0.88;0.88;;;23.20;55.70;;;;;;20557;6883;123654;-74
2023/09/19 08:08:38;;;;;;;1.77;1.27;;;23.00;56.00;;;;;;20371;6883;279583;-74
2023/09/19 08:11:11;;;;;;;1.80;1.20;;;23.10;54.70;;;;;;20378;6883;280184;-73
2023/09/19 08:13:31;;;;;;;2.70;1.40;;;23.30;54.30;;;;;;20357;6883;299183;-76
2023/09/19 08:15:55;;;;;;;1.57;1.23;;;23.50;54.20;;;;;;20585;6883;117945;-73
2023/09/19 08:18:26;;;;;;;2.35;1.33;;;23.30;54.30;;;;;;20366;6883;288009;-73
2023/09/19 08:20:51;;;;;;;1.57;1.33;;;23.30;53.90;;;;;;20593;6883;118154;-73
2023/09/19 08:23:19;;;;;;;1.70;1.20;;;23.00;53.20;;;;;;20374;6883;310210;-73
2023/09/19 08:25:45;;;;;;;2.20;1.20;;;23.00;53.20;;;;;;20364;6883;339046;-73
2023/09/19 08:28:12;;;;;;;1.47;1.37;;;23.20;52.10;;;;;;20586;6882;117618;-73
2023/09/19 08:30:35;;;;;;;1.55;0.93;;;23.00;52.40;;;;;;20281;6882;279291;-73
2023/09/19 08:33:00;;;;;;;1.53;1.20;;;23.00;51.90;;;;;;20382;6881;311697;-73
2023/09/19 08:35:26;;;;;;;1.25;1.15;;;23.20;51.40;;;;;;20383;6881;280179;-73
2023/09/19 08:37:52;;;;;;;1.77;1.13;;;23.40;51.60;;;;;;20591;6881;121330;-73
2023/09/19 08:40:17;;;;;;;1.20;1.00;;;23.20;52.10;;;;;;20363;6882;309039;-73
2023/09/19 08:42:53;;;;;;;2.00;0.80;;;23.30;52.00;;;;;;20595;6882;118200;-73
2023/09/19 08:45:18;;;;;;;2.12;1.30;;;23.10;51.90;;;;;;20370;6882;309631;-72
2023/09/19 08:47:48;;;;;;;1.67;1.00;;;23.00;51.60;;;;;;20572;6882;119859;-73
2023/09/19 08:50:19;;;;;;;1.50;1.20;;;23.00;51.20;;;;;;20326;6882;314962;-75
2023/09/19 08:52:45;;;;;;;1.53;1.20;;;23.10;50.70;;;;;;20355;6882;309031;-72
2023/09/19 08:55:20;;;;;;;3.23;1.20;;;23.50;51.20;;;;;;20579;6882;117702;-72
2023/09/19 08:57:41;;;;;;;1.70;1.40;;;23.50;51.10;;;;;;20362;6882;313534;-74
2023/09/19 09:00:09;;;;;;;2.05;1.40;;;23.70;50.00;;;;;;20375;6882;310304;-72
2023/09/19 09:02:31;;;;;;;1.30;1.20;;;24.00;50.30;;;;;;20353;6882;310028;-73
2023/09/19 09:04:57;;;;;;;1.80;1.27;;;24.30;49.20;;;;;;20385;6882;310633;-73
2023/09/19 09:07:22;;;;;;;2.60;1.23;;;24.40;47.10;;;;;;20373;6882;309348;-73
2023/09/19 09:09:48;;;;;;;0.90;0.90;;;24.50;48.20;;;;;;20588;6882;117865;-72
2023/09/19 09:12:15;;;;;;;1.45;1.35;;;24.30;48.80;;;;;;20359;6882;309421;-73
2023/09/19 09:14:40;;;;;;;1.50;1.40;;;24.40;48.40;;;;;;20561;6882;118026;-73
2023/09/19 09:17:05;;;;;;;1.90;1.20;;;24.30;48.90;;;;;;20570;6882;119318;-73
2023/09/19 09:19:31;;;;;;;2.03;1.30;;;24.20;48.50;;;;;;20372;6882;280885;-73
2023/09/19 09:22:10;;;;;;;1.62;1.30;;;24.20;48.50;;;;;;20372;6882;339997;-72
2023/09/19 09:24:38;;;;;;;1.20;1.20;;;24.50;48.30;;;;;;20389;6882;310333;-72
2023/09/19 09:27:03;;;;;;;2.42;1.33;;;24.60;46.80;;;;;;20386;6882;309846;-74
2023/09/19 09:29:43;;;;;;;1.67;1.13;;;24.60;46.10;;;;;;20377;6882;309572;-72
2023/09/19 09:32:19;;;;;;;3.60;1.33;;;24.60;46.30;;;;;;20600;6882;120211;-74
2023/09/19 09:34:44;;;;;;;1.70;1.17;;;24.30;47.10;;;;;;20522;6882;118142;-71
2023/09/19 09:37:19;;;;;;;1.37;1.27;;;23.90;47.80;;;;;;20593;6882;118637;-74
2023/09/19 09:39:42;;;;;;;1.67;1.23;;;23.50;48.10;;;;;;20577;6880;119815;-71
2023/09/19 09:42:09;;;;;;;1.35;1.10;;;23.30;48.50;;;;;;20544;6881;124670;-71
2023/09/19 09:44:32;;;;;;;2.40;1.40;;;23.10;48.70;;;;;;20364;6881;280991;-71
2023/09/19 09:47:27;;;;;;;1.98;1.17;;;23.30;46.70;;;;;;20595;6881;117454;-71
2023/09/19 09:49:32;;;;;;;1.15;1.08;;;23.30;47.10;;;;;;20533;6881;117819;-72
2023/09/19 09:52:06;;;;;;;1.13;1.13;;;23.20;47.50;;;;;;20579;6882;119668;-72
2023/09/19 09:54:36;;;;;;;1.70;1.42;;;23.00;47.70;;;;;;20355;6882;316012;-72
2023/09/19 09:56:59;;;;;;;3.63;1.30;;;23.10;46.00;;;;;;20552;6882;121598;-73
2023/09/19 09:59:49;;;;;;;1.92;1.40;;;23.10;46.40;;;;;;20380;6882;309716;-72
2023/09/19 10:02:14;;;;;;;1.73;1.47;;;23.30;46.10;;;;;;20351;6882;314410;-72
2023/09/19 10:04:51;;;;;;;1.67;1.40;;;23.70;45.10;;;;;;20383;6882;311614;-72
2023/09/19 10:07:11;;;;;;;1.30;1.20;;;23.90;45.00;;;;;;20557;6882;117995;-72
2023/09/19 10:09:36;;;;;;;2.62;1.23;;;23.90;45.20;;;;;;20362;6882;310721;-72
2023/09/19 10:11:57;;;;;;;1.37;1.20;;;24.00;44.20;;;;;;20575;6882;117861;-72
2023/09/19 10:14:23;;;;;;;1.60;1.50;;;23.90;44.70;;;;;;20328;6882;313960;-72
2023/09/19 10:16:47;;;;;;;1.65;1.55;;;24.00;44.40;;;;;;20361;6882;303211;-72
2023/09/19 10:19:12;;;;;;;1.45;1.35;;;24.20;44.30;;;;;;20382;6882;290306;-73
2023/09/19 10:21:39;;;;;;;1.70;1.60;;;24.60;43.80;;;;;;20336;6882;280069;-73
2023/09/19 10:24:07;;;;;;;2.00;1.40;;;24.80;43.90;;;;;;20565;6882;118315;-72
2023/09/19 10:26:30;;;;;;;1.37;1.27;;;25.00;44.70;;;;;;20344;6882;325370;-73
2023/09/19 10:28:55;;;;;;;1.50;1.12;;;25.20;43.10;;;;;;20587;6882;122656;-72
2023/09/19 10:31:24;;;;;;;1.50;1.40;;;25.30;43.50;;;;;;20377;6882;309614;-72
2023/09/19 10:33:46;;;;;;;1.47;1.37;;;25.50;41.80;;;;;;20576;6882;121230;-73
2023/09/19 10:36:12;;;;;;;1.73;1.40;;;25.60;42.20;;;;;;20342;6882;300553;-72
2023/09/19 10:38:40;;;;;;;2.42;1.48;;;26.30;42.80;;;;;;20385;6882;279746;-72
2023/09/19 10:41:03;;;;;;;1.60;1.50;;;26.20;42.20;;;;;;20570;6882;117741;-72
2023/09/19 10:43:30;;;;;;;1.73;1.35;;;26.60;40.70;;;;;;20372;6882;284170;-72
2023/09/19 10:45:55;;;;;;;1.50;1.40;;;26.60;40.60;;;;;;20587;6882;117583;-73
2023/09/19 10:48:25;;;;;;;1.33;1.23;;;26.50;40.50;;;;;;20348;6882;339854;-73
2023/09/19 10:50:46;;;;;;;1.17;1.10;;;26.60;39.40;;;;;;20582;6880;123758;-73
2023/09/19 10:53:13;;;;;;;1.40;1.30;;;26.50;40.00;;;;;;20366;6881;300453;-73
2023/09/19 10:55:39;;;;;;;1.20;1.20;;;26.60;38.30;;;;;;20583;6881;118399;-73
2023/09/19 10:58:14;;;;;;;1.40;1.30;;;26.40;39.50;;;;;;20373;6881;292228;-72
2023/09/19 11:00:49;;;;;;;1.73;1.27;;;26.50;40.30;;;;;;20594;6881;117780;-74
2023/09/19 11:03:18;;;;;;;1.77;0.93;;;26.50;41.20;;;;;;20586;6882;118600;-74
2023/09/19 11:05:41;;;;;;;1.70;1.40;;;26.40;39.60;;;;;;20381;6882;338378;-72
2023/09/19 11:08:07;;;;;;;1.40;1.37;;;26.40;39.40;;;;;;20590;6882;118090;-74
2023/09/19 11:10:50;;;;;;;1.87;1.77;;;26.40;40.30;;;;;;20553;6882;119710;-72
2023/09/19 11:13:34;;;;;;;1.50;1.40;;;26.40;41.10;;;;;;20579;6884;118165;-73
2023/09/19 11:15:57;;;;;;;0.97;0.97;;;26.30;41.30;;;;;;20575;6884;117554;-73
2023/09/19 11:18:41;;;;;;;3.23;1.30;;;26.30;41.60;;;;;;20566;6884;119261;-73
2023/09/19 11:21:33;;;;;;;1.27;1.17;;;26.20;41.20;;;;;;20592;6884;117509;-73
2023/09/19 11:24:22;;;;;;;1.20;1.10;;;26.00;41.30;;;;;;20588;6884;119226;-73
2023/09/19 11:26:47;;;;;;;1.43;1.33;;;25.80;41.50;;;;;;20575;6884;117910;-73
2023/09/19 11:29:30;;;;;;;1.30;1.20;;;25.60;41.60;;;;;;20601;6884;66944;-75
2023/09/19 11:31:56;;;;;;;2.30;1.20;;;25.40;41.50;;;;;;20377;6884;312338;-75
2023/09/19 11:34:45;;;;;;;1.87;1.20;;;25.60;39.40;;;;;;20580;6884;119626;-74
2023/09/19 11:37:11;;;;;;;2.20;1.33;;;25.60;40.00;;;;;;20383;6884;308890;-74
2023/09/19 11:39:38;;;;;;;1.87;1.33;;;25.80;38.90;;;;;;20390;6884;313213;-73
2023/09/19 11:42:03;;;;;;;1.30;1.20;;;26.30;38.50;;;;;;20367;6884;310834;-73
2023/09/19 11:44:33;;;;;;;1.40;1.30;;;26.30;37.80;;;;;;20265;6884;308137;-72
2023/09/19 11:46:58;;;;;;;1.40;1.30;;;26.40;37.40;;;;;;20363;6884;308882;-74
2023/09/19 11:49:26;;;;;;;1.33;1.23;;;26.50;37.30;;;;;;20582;6884;121603;-73
2023/09/19 11:51:51;;;;;;;1.27;1.20;;;26.30;38.20;;;;;;20376;6884;331089;-73
2023/09/19 11:54:18;;;;;;;2.60;1.40;;;26.50;37.10;;;;;;20358;6884;287351;-74
2023/09/19 11:56:44;;;;;;;2.30;1.40;;;26.50;37.00;;;;;;20380;6884;280966;-74
2023/09/19 11:59:09;;;;;;;1.67;1.23;;;26.60;37.50;;;;;;20585;6884;119354;-75
2023/09/19 12:01:35;;;;;;;1.53;1.30;;;26.20;39.50;;;;;;20582;6884;118209;-75
2023/09/19 12:04:01;;;;;;;1.10;1.10;;;26.20;39.40;;;;;;20366;6882;308536;-75
2023/09/19 12:06:26;;;;;;;1.37;1.27;;;26.30;39.40;;;;;;20350;6883;281170;-74
2023/09/19 12:08:54;;;;;;;2.50;1.10;;;26.60;38.40;;;;;;20339;6883;282007;-73
2023/09/19 12:11:18;;;;;;;1.65;1.30;;;26.90;38.30;;;;;;20353;6883;309718;-74
2023/09/19 12:13:44;;;;;;;1.30;1.00;;;27.20;37.80;;;;;;20603;6883;117683;-73
2023/09/19 12:16:15;;;;;;;2.20;1.25;;;27.10;38.30;;;;;;20371;6883;294078;-73
2023/09/19 12:18:44;;;;;;;1.70;0.90;;;27.10;37.60;;;;;;20598;6883;118358;-73
2023/09/19 12:21:07;;;;;;;2.10;1.00;;;27.00;38.30;;;;;;20598;6883;117941;-73
2023/09/19 12:23:33;;;;;;;1.83;1.23;;;26.80;39.10;;;;;;20382;6884;307997;-72
2023/09/19 12:25:59;;;;;;;1.95;1.25;;;26.80;37.50;;;;;;20377;6884;306836;-74
2023/09/19 12:28:23;;;;;;;1.40;1.30;;;26.90;36.20;;;;;;20562;6884;119429;-74
2023/09/19 12:30:49;;;;;;;1.70;1.33;;;26.80;37.10;;;;;;20576;6884;118287;-73
2023/09/19 12:33:25;;;;;;;1.45;1.10;;;26.40;37.10;;;;;;20376;6884;308329;-73
2023/09/19 12:35:47;;;;;;;3.10;1.27;;;26.40;37.10;;;;;;20365;6884;337866;-73